sensor_id;sensor_type;location;lat;lon;timestamp;pressure;altitude;pressure_sealevel;temperature;humidity
50702;BME280;36670;50.094;8.496;2023-12-14T00:00:43;99289.22;;;10.75;58.13
50702;BME280;36670;50.094;8.496;2023-12-14T00:03:08;99295.03;;;10.68;58.39
50702;BME280;36670;50.094;8.496;2023-12-14T00:05:33;99292.53;;;10.82;58.08
50702;BME280;36670;50.094;8.496;2023-12-14T00:08:00;99297.25;;;10.40;58.19
50702;BME280;36670;50.094;8.496;2023-12-14T00:10:25;99301.94;;;10.24;59.16
50702;BME280;36670;50.094;8.496;2023-12-14T00:12:51;99302.50;;;10.57;57.88
50702;BME280;36670;50.094;8.496;2023-12-14T00:15:17;99304.97;;;10.69;57.86
50702;BME280;36670;50.094;8.496;2023-12-14T00:17:43;99316.28;;;10.63;57.99
50702;BME280;36670;50.094;8.496;2023-12-14T00:20:08;99321.66;;;9.70;59.00
50702;BME280;36670;50.094;8.496;2023-12-14T00:22:34;99315.66;;;9.88;59.00
50702;BME280;36670;50.094;8.496;2023-12-14T00:24:59;99329.16;;;9.85;59.59
50702;BME280;36670;50.094;8.496;2023-12-14T00:27:25;99323.69;;;10.05;58.92
50702;BME280;36670;50.094;8.496;2023-12-14T00:29:50;99324.53;;;10.27;58.58
50702;BME280;36670;50.094;8.496;2023-12-14T00:32:15;99337.50;;;10.26;57.95
50702;BME280;36670;50.094;8.496;2023-12-14T00:34:41;99335.00;;;10.30;58.51
50702;BME280;36670;50.094;8.496;2023-12-14T00:37:06;99337.84;;;10.40;57.50
50702;BME280;36670;50.094;8.496;2023-12-14T00:39:32;99346.38;;;10.44;57.46
50702;BME280;36670;50.094;8.496;2023-12-14T00:41:57;99348.03;;;10.34;57.94
50702;BME280;36670;50.094;8.496;2023-12-14T00:44:22;99345.81;;;10.36;57.54
50702;BME280;36670;50.094;8.496;2023-12-14T00:46:48;99357.16;;;10.40;57.50
50702;BME280;36670;50.094;8.496;2023-12-14T00:49:13;99358.81;;;10.41;56.89
50702;BME280;36670;50.094;8.496;2023-12-14T00:51:39;99365.69;;;10.38;57.63
50702;BME280;36670;50.094;8.496;2023-12-14T00:54:05;99363.47;;;10.40;57.27
50702;BME280;36670;50.094;8.496;2023-12-14T00:56:30;99374.25;;;10.42;57.09
50702;BME280;36670;50.094;8.496;2023-12-14T00:58:55;99375.88;;;10.33;56.73
50702;BME280;36670;50.094;8.496;2023-12-14T01:01:21;99383.22;;;9.91;58.52
50702;BME280;36670;50.094;8.496;2023-12-14T01:03:46;99388.56;;;10.29;57.06
50702;BME280;36670;50.094;8.496;2023-12-14T01:06:11;99391.91;;;10.36;57.60
50702;BME280;36670;50.094;8.496;2023-12-14T01:08:36;99402.31;;;10.13;56.95
50702;BME280;36670;50.094;8.496;2023-12-14T01:11:02;99412.63;;;9.65;58.29
50702;BME280;36670;50.094;8.496;2023-12-14T01:13:27;99419.19;;;9.53;59.23
50702;BME280;36670;50.094;8.496;2023-12-14T01:15:52;99430.16;;;9.48;59.01
50702;BME280;36670;50.094;8.496;2023-12-14T01:18:17;99430.34;;;9.36;58.94
50702;BME280;36670;50.094;8.496;2023-12-14T01:20:43;99433.59;;;9.23;59.22
50702;BME280;36670;50.094;8.496;2023-12-14T01:23:08;99438.69;;;9.47;59.50
50702;BME280;36670;50.094;8.496;2023-12-14T01:25:35;99444.63;;;9.76;58.21
50702;BME280;36670;50.094;8.496;2023-12-14T01:28:00;99451.03;;;9.87;59.13
50702;BME280;36670;50.094;8.496;2023-12-14T01:30:25;99456.94;;;10.16;58.09
50702;BME280;36670;50.094;8.496;2023-12-14T01:32:50;99456.97;;;10.32;57.52
50702;BME280;36670;50.094;8.496;2023-12-14T01:35:15;99458.16;;;10.51;57.23
50702;BME280;36670;50.094;8.496;2023-12-14T01:37:41;99460.38;;;10.59;57.46
50702;BME280;36670;50.094;8.496;2023-12-14T01:40:06;99471.97;;;10.67;57.08
50702;BME280;36670;50.094;8.496;2023-12-14T01:42:32;99474.16;;;10.54;57.29
50702;BME280;36670;50.094;8.496;2023-12-14T01:44:57;99473.47;;;10.21;58.01
50702;BME280;36670;50.094;8.496;2023-12-14T01:47:22;99476.56;;;9.67;59.30
50702;BME280;36670;50.094;8.496;2023-12-14T01:49:48;99488.16;;;9.74;59.17
50702;BME280;36670;50.094;8.496;2023-12-14T01:52:13;99490.41;;;9.82;58.78
50702;BME280;36670;50.094;8.496;2023-12-14T01:54:38;99498.09;;;9.75;59.93
50702;BME280;36670;50.094;8.496;2023-12-14T01:57:04;99495.53;;;9.58;60.12
50702;BME280;36670;50.094;8.496;2023-12-14T01:59:29;99500.56;;;9.71;59.53
50702;BME280;36670;50.094;8.496;2023-12-14T02:01:56;99501.00;;;10.06;58.90
50702;BME280;36670;50.094;8.496;2023-12-14T02:04:23;99497.28;;;10.38;58.54
50702;BME280;36670;50.094;8.496;2023-12-14T02:06:49;99504.25;;;10.56;58.28
50702;BME280;36670;50.094;8.496;2023-12-14T02:09:14;99510.31;;;10.43;58.38
50702;BME280;36670;50.094;8.496;2023-12-14T02:11:39;99510.06;;;10.59;58.22
50702;BME280;36670;50.094;8.496;2023-12-14T02:14:06;99506.50;;;10.80;57.92
50702;BME280;36670;50.094;8.496;2023-12-14T02:16:31;99508.72;;;10.72;57.95
50702;BME280;36670;50.094;8.496;2023-12-14T02:18:57;99516.44;;;10.65;58.04
50702;BME280;36670;50.094;8.496;2023-12-14T02:21:22;99512.50;;;10.46;59.20
50702;BME280;36670;50.094;8.496;2023-12-14T02:23:47;99518.03;;;10.46;58.71
50702;BME280;36670;50.094;8.496;2023-12-14T02:26:13;99517.81;;;10.78;58.04
50702;BME280;36670;50.094;8.496;2023-12-14T02:28:39;99522.00;;;11.01;57.58
50702;BME280;36670;50.094;8.496;2023-12-14T02:31:04;99524.22;;;11.09;57.94
50702;BME280;36670;50.094;8.496;2023-12-14T02:33:30;99523.41;;;11.19;57.36
50702;BME280;36670;50.094;8.496;2023-12-14T02:35:55;99530.81;;;10.78;58.42
50702;BME280;36670;50.094;8.496;2023-12-14T02:38:20;99533.25;;;10.69;58.05
50702;BME280;36670;50.094;8.496;2023-12-14T02:40:46;99536.88;;;10.74;58.43
50702;BME280;36670;50.094;8.496;2023-12-14T02:43:12;99536.91;;;10.95;57.40
50702;BME280;36670;50.094;8.496;2023-12-14T02:45:37;99536.94;;;11.05;57.84
50702;BME280;36670;50.094;8.496;2023-12-14T02:48:03;99540.66;;;10.43;58.93
50702;BME280;36670;50.094;8.496;2023-12-14T02:50:28;99551.50;;;10.75;57.92
50702;BME280;36670;50.094;8.496;2023-12-14T02:52:53;99549.34;;;10.92;58.11
50702;BME280;36670;50.094;8.496;2023-12-14T02:55:18;99546.59;;;10.92;57.89
50702;BME280;36670;50.094;8.496;2023-12-14T02:57:44;99553.50;;;11.05;58.22
50702;BME280;36670;50.094;8.496;2023-12-14T03:00:10;99554.91;;;11.18;57.64
50702;BME280;36670;50.094;8.496;2023-12-14T03:02:35;99554.06;;;11.18;57.73
50702;BME280;36670;50.094;8.496;2023-12-14T03:05:01;99563.47;;;11.17;57.95
50702;BME280;36670;50.094;8.496;2023-12-14T03:07:26;99563.47;;;11.06;58.08
50702;BME280;36670;50.094;8.496;2023-12-14T03:09:51;99560.94;;;10.95;58.18
50702;BME280;36670;50.094;8.496;2023-12-14T03:12:16;99560.09;;;10.99;57.60
50702;BME280;36670;50.094;8.496;2023-12-14T03:14:42;99565.88;;;10.82;57.87
50702;BME280;36670;50.094;8.496;2023-12-14T03:17:07;99565.06;;;10.92;57.75
50702;BME280;36670;50.094;8.496;2023-12-14T03:19:41;99579.75;;;11.13;57.56
50702;BME280;36670;50.094;8.496;2023-12-14T03:22:07;99578.09;;;11.12;57.53
50702;BME280;36670;50.094;8.496;2023-12-14T03:24:32;99577.78;;;10.93;58.44
50702;BME280;36670;50.094;8.496;2023-12-14T03:26:58;99587.75;;;10.94;57.83
50702;BME280;36670;50.094;8.496;2023-12-14T03:29:23;99586.94;;;11.14;58.11
50702;BME280;36670;50.094;8.496;2023-12-14T03:31:48;99598.28;;;11.18;57.18
50702;BME280;36670;50.094;8.496;2023-12-14T03:34:13;99594.16;;;11.20;57.93
50702;BME280;36670;50.094;8.496;2023-12-14T03:36:39;99592.47;;;11.14;58.21
50702;BME280;36670;50.094;8.496;2023-12-14T03:39:04;99596.34;;;11.08;57.79
50702;BME280;36670;50.094;8.496;2023-12-14T03:41:30;99596.88;;;11.15;58.11
50702;BME280;36670;50.094;8.496;2023-12-14T03:43:56;99599.38;;;11.06;58.10
50702;BME280;36670;50.094;8.496;2023-12-14T03:46:21;99607.09;;;11.04;58.53
50702;BME280;36670;50.094;8.496;2023-12-14T03:48:46;99605.81;;;10.54;58.92
50702;BME280;36670;50.094;8.496;2023-12-14T03:51:11;99615.81;;;10.65;58.62
50702;BME280;36670;50.094;8.496;2023-12-14T03:53:37;99620.75;;;10.63;59.04
50702;BME280;36670;50.094;8.496;2023-12-14T03:56:03;99616.25;;;10.41;59.80
50702;BME280;36670;50.094;8.496;2023-12-14T03:58:28;99614.50;;;10.30;59.98
50702;BME280;36670;50.094;8.496;2023-12-14T04:00:53;99620.72;;;10.10;60.05
50702;BME280;36670;50.094;8.496;2023-12-14T04:03:18;99642.84;;;10.63;58.70
50702;BME280;36670;50.094;8.496;2023-12-14T04:05:44;99647.91;;;9.59;60.80
50702;BME280;36670;50.094;8.496;2023-12-14T04:08:09;99642.25;;;10.08;60.07
50702;BME280;36670;50.094;8.496;2023-12-14T04:10:35;99651.31;;;10.46;60.09
50702;BME280;36670;50.094;8.496;2023-12-14T04:13:00;99640.06;;;10.63;59.04
50702;BME280;36670;50.094;8.496;2023-12-14T04:15:25;99648.16;;;10.75;58.63
50702;BME280;36670;50.094;8.496;2023-12-14T04:17:51;99656.00;;;10.46;60.01
50702;BME280;36670;50.094;8.496;2023-12-14T04:20:16;99661.66;;;10.71;59.59
50702;BME280;36670;50.094;8.496;2023-12-14T04:22:45;99661.94;;;10.75;58.96
50702;BME280;36670;50.094;8.496;2023-12-14T04:25:10;99663.09;;;10.89;58.59
50702;BME280;36670;50.094;8.496;2023-12-14T04:27:36;99663.78;;;10.59;59.23
50702;BME280;36670;50.094;8.496;2023-12-14T04:30:01;99663.00;;;10.69;58.95
50702;BME280;36670;50.094;8.496;2023-12-14T04:32:27;99669.22;;;10.44;59.48
50702;BME280;36670;50.094;8.496;2023-12-14T04:34:52;99672.81;;;10.39;60.13
50702;BME280;36670;50.094;8.496;2023-12-14T04:37:17;99677.94;;;10.73;59.15
50702;BME280;36670;50.094;8.496;2023-12-14T04:39:42;99684.09;;;10.90;58.46
50702;BME280;36670;50.094;8.496;2023-12-14T04:42:08;99681.00;;;10.76;59.29
50702;BME280;36670;50.094;8.496;2023-12-14T04:44:33;99685.66;;;10.28;60.40
50702;BME280;36670;50.094;8.496;2023-12-14T04:46:58;99697.00;;;10.32;60.40
50702;BME280;36670;50.094;8.496;2023-12-14T04:49:24;99703.69;;;10.36;60.13
50702;BME280;36670;50.094;8.496;2023-12-14T04:51:49;99702.44;;;10.54;59.96
50702;BME280;36670;50.094;8.496;2023-12-14T04:54:14;99709.00;;;10.43;60.45
50702;BME280;36670;50.094;8.496;2023-12-14T04:56:40;99699.47;;;10.28;60.70
50702;BME280;36670;50.094;8.496;2023-12-14T04:59:06;99711.56;;;10.22;60.88
50702;BME280;36670;50.094;8.496;2023-12-14T05:01:31;99720.53;;;10.39;60.29
50702;BME280;36670;50.094;8.496;2023-12-14T05:03:57;99718.41;;;10.52;60.17
50702;BME280;36670;50.094;8.496;2023-12-14T05:06:22;99716.56;;;10.25;60.46
50702;BME280;36670;50.094;8.496;2023-12-14T05:08:47;99723.59;;;10.43;60.87
50702;BME280;36670;50.094;8.496;2023-12-14T05:11:13;99728.31;;;10.48;60.64
50702;BME280;36670;50.094;8.496;2023-12-14T05:13:39;99729.53;;;10.62;60.24
50702;BME280;36670;50.094;8.496;2023-12-14T05:16:04;99734.34;;;10.87;59.55
50702;BME280;36670;50.094;8.496;2023-12-14T05:18:30;99737.03;;;10.77;59.68
50702;BME280;36670;50.094;8.496;2023-12-14T05:20:55;99747.44;;;10.22;60.94
50702;BME280;36670;50.094;8.496;2023-12-14T05:23:21;99755.78;;;10.65;59.77
50702;BME280;36670;50.094;8.496;2023-12-14T05:25:46;99752.59;;;10.88;59.64
50702;BME280;36670;50.094;8.496;2023-12-14T05:28:12;99754.44;;;10.72;59.81
50702;BME280;36670;50.094;8.496;2023-12-14T05:30:37;99763.44;;;11.05;58.26
50702;BME280;36670;50.094;8.496;2023-12-14T05:33:03;99772.94;;;10.72;59.42
50702;BME280;36670;50.094;8.496;2023-12-14T05:35:28;99774.16;;;10.97;58.88
50702;BME280;36670;50.094;8.496;2023-12-14T05:37:53;99772.00;;;10.56;59.29
50702;BME280;36670;50.094;8.496;2023-12-14T05:40:19;99790.72;;;10.49;59.02
50702;BME280;36670;50.094;8.496;2023-12-14T05:42:44;99792.66;;;10.53;59.72
50702;BME280;36670;50.094;8.496;2023-12-14T05:45:09;99790.78;;;10.59;60.18
50702;BME280;36670;50.094;8.496;2023-12-14T05:47:35;99791.34;;;10.61;59.59
50702;BME280;36670;50.094;8.496;2023-12-14T05:50:01;99803.69;;;10.48;59.75
50702;BME280;36670;50.094;8.496;2023-12-14T05:52:26;99809.06;;;10.33;61.05
50702;BME280;36670;50.094;8.496;2023-12-14T05:54:52;99807.59;;;10.25;61.68
50702;BME280;36670;50.094;8.496;2023-12-14T05:57:17;99812.53;;;10.50;61.55
50702;BME280;36670;50.094;8.496;2023-12-14T05:59:42;99822.91;;;10.70;62.08
50702;BME280;36670;50.094;8.496;2023-12-14T06:02:08;99824.19;;;11.00;61.66
50702;BME280;36670;50.094;8.496;2023-12-14T06:04:33;99828.66;;;10.69;61.62
50702;BME280;36670;50.094;8.496;2023-12-14T06:06:58;99833.47;;;10.46;61.83
50702;BME280;36670;50.094;8.496;2023-12-14T06:09:24;99835.06;;;10.74;61.12
50702;BME280;36670;50.094;8.496;2023-12-14T06:12:01;99847.09;;;11.01;60.98
50702;BME280;36670;50.094;8.496;2023-12-14T06:14:27;99849.56;;;11.45;60.04
50702;BME280;36670;50.094;8.496;2023-12-14T06:16:53;99863.59;;;11.38;59.47
50702;BME280;36670;50.094;8.496;2023-12-14T06:19:18;99860.44;;;11.14;59.79
50702;BME280;36670;50.094;8.496;2023-12-14T06:21:43;99872.16;;;10.89;60.89
50702;BME280;36670;50.094;8.496;2023-12-14T06:24:09;99862.31;;;11.03;60.24
50702;BME280;36670;50.094;8.496;2023-12-14T06:26:34;99871.94;;;10.96;60.84
50702;BME280;36670;50.094;8.496;2023-12-14T06:29:00;99873.75;;;11.22;60.49
50702;BME280;36670;50.094;8.496;2023-12-14T06:31:25;99878.19;;;11.23;59.47
50702;BME280;36670;50.094;8.496;2023-12-14T06:33:51;99872.72;;;10.91;61.22
50702;BME280;36670;50.094;8.496;2023-12-14T06:36:16;99888.22;;;11.35;59.90
50702;BME280;36670;50.094;8.496;2023-12-14T06:38:43;99890.41;;;10.90;60.91
50702;BME280;36670;50.094;8.496;2023-12-14T06:41:08;99897.84;;;10.84;60.76
50702;BME280;36670;50.094;8.496;2023-12-14T06:43:34;99901.69;;;10.83;60.41
50702;BME280;36670;50.094;8.496;2023-12-14T06:45:59;99901.22;;;10.97;61.38
50702;BME280;36670;50.094;8.496;2023-12-14T06:48:25;99915.53;;;11.31;60.16
50702;BME280;36670;50.094;8.496;2023-12-14T06:50:50;99915.66;;;11.52;59.94
50702;BME280;36670;50.094;8.496;2023-12-14T06:53:16;99918.84;;;11.28;60.06
50702;BME280;36670;50.094;8.496;2023-12-14T06:55:41;99913.19;;;11.60;59.98
50702;BME280;36670;50.094;8.496;2023-12-14T06:58:06;99916.03;;;11.76;59.33
50702;BME280;36670;50.094;8.496;2023-12-14T07:00:37;99925.50;;;11.90;58.87
50702;BME280;36670;50.094;8.496;2023-12-14T07:03:02;99929.03;;;11.75;58.28
50702;BME280;36670;50.094;8.496;2023-12-14T07:05:28;99933.69;;;11.65;59.43
50702;BME280;36670;50.094;8.496;2023-12-14T07:07:53;99939.28;;;11.75;58.67
50702;BME280;36670;50.094;8.496;2023-12-14T07:10:19;99947.06;;;11.35;59.74
50702;BME280;36670;50.094;8.496;2023-12-14T07:12:44;99947.97;;;11.46;59.74
50702;BME280;36670;50.094;8.496;2023-12-14T07:15:09;99944.88;;;11.37;60.02
50702;BME280;36670;50.094;8.496;2023-12-14T07:17:35;99956.22;;;11.36;60.20
50702;BME280;36670;50.094;8.496;2023-12-14T07:20:00;99953.63;;;11.67;59.96
50702;BME280;36670;50.094;8.496;2023-12-14T07:22:25;99963.13;;;11.86;59.30
50702;BME280;36670;50.094;8.496;2023-12-14T07:24:51;99959.88;;;11.94;58.86
50702;BME280;36670;50.094;8.496;2023-12-14T07:27:16;99972.00;;;11.93;58.69
50702;BME280;36670;50.094;8.496;2023-12-14T07:29:41;99980.28;;;11.40;59.69
50702;BME280;36670;50.094;8.496;2023-12-14T07:32:06;99990.88;;;11.59;60.35
50702;BME280;36670;50.094;8.496;2023-12-14T07:34:32;99986.38;;;11.90;59.87
50702;BME280;36670;50.094;8.496;2023-12-14T07:36:57;99993.09;;;12.05;59.97
50702;BME280;36670;50.094;8.496;2023-12-14T07:39:22;99999.88;;;12.35;58.54
50702;BME280;36670;50.094;8.496;2023-12-14T07:41:47;99998.72;;;12.25;58.48
50702;BME280;36670;50.094;8.496;2023-12-14T07:44:13;100007.41;;;11.91;59.74
50702;BME280;36670;50.094;8.496;2023-12-14T07:46:38;100009.00;;;11.82;60.98
50702;BME280;36670;50.094;8.496;2023-12-14T07:49:06;100019.03;;;11.93;60.79
50702;BME280;36670;50.094;8.496;2023-12-14T07:51:32;100017.50;;;12.13;60.12
50702;BME280;36670;50.094;8.496;2023-12-14T07:53:57;100023.91;;;12.24;59.79
50702;BME280;36670;50.094;8.496;2023-12-14T07:56:23;100030.34;;;12.45;59.54
50702;BME280;36670;50.094;8.496;2023-12-14T07:58:50;100024.38;;;12.05;60.49
50702;BME280;36670;50.094;8.496;2023-12-14T08:01:16;100023.00;;;12.08;60.27
50702;BME280;36670;50.094;8.496;2023-12-14T08:03:41;100035.69;;;12.04;59.98
50702;BME280;36670;50.094;8.496;2023-12-14T08:06:06;100042.91;;;12.05;59.93
50702;BME280;36670;50.094;8.496;2023-12-14T08:08:32;100044.22;;;12.55;59.57
50702;BME280;36670;50.094;8.496;2023-12-14T08:10:57;100044.75;;;12.42;58.90
50702;BME280;36670;50.094;8.496;2023-12-14T08:13:22;100048.66;;;12.51;59.22
50702;BME280;36670;50.094;8.496;2023-12-14T08:15:47;100052.97;;;12.32;59.99
50702;BME280;36670;50.094;8.496;2023-12-14T08:18:13;100061.09;;;12.54;59.15
50702;BME280;36670;50.094;8.496;2023-12-14T08:20:38;100061.13;;;12.59;59.09
50702;BME280;36670;50.094;8.496;2023-12-14T08:23:03;100069.28;;;12.23;58.99
50702;BME280;36670;50.094;8.496;2023-12-14T08:25:29;100073.56;;;12.51;58.67
50702;BME280;36670;50.094;8.496;2023-12-14T08:27:54;100077.44;;;12.50;59.33
50702;BME280;36670;50.094;8.496;2023-12-14T08:30:19;100076.88;;;12.43;59.81
50702;BME280;36670;50.094;8.496;2023-12-14T08:32:46;100080.25;;;12.60;59.02
50702;BME280;36670;50.094;8.496;2023-12-14T08:35:11;100088.84;;;12.69;59.08
50702;BME280;36670;50.094;8.496;2023-12-14T08:37:36;100093.56;;;12.69;58.83
50702;BME280;36670;50.094;8.496;2023-12-14T08:40:02;100097.44;;;12.62;59.68
50702;BME280;36670;50.094;8.496;2023-12-14T08:42:28;100099.69;;;12.81;59.33
50702;BME280;36670;50.094;8.496;2023-12-14T08:44:54;100111.88;;;12.75;58.74
50702;BME280;36670;50.094;8.496;2023-12-14T08:47:19;100110.84;;;13.02;58.80
50702;BME280;36670;50.094;8.496;2023-12-14T08:49:44;100122.59;;;12.56;59.55
50702;BME280;36670;50.094;8.496;2023-12-14T08:52:10;100122.09;;;12.74;59.07
50702;BME280;36670;50.094;8.496;2023-12-14T08:54:36;100135.53;;;12.40;60.39
50702;BME280;36670;50.094;8.496;2023-12-14T08:57:02;100138.00;;;12.94;59.11
50702;BME280;36670;50.094;8.496;2023-12-14T08:59:27;100135.72;;;12.81;58.90
50702;BME280;36670;50.094;8.496;2023-12-14T09:01:53;100152.31;;;12.71;59.25
50702;BME280;36670;50.094;8.496;2023-12-14T09:04:18;100154.31;;;12.91;58.99
50702;BME280;36670;50.094;8.496;2023-12-14T09:06:44;100150.50;;;12.44;59.16
50702;BME280;36670;50.094;8.496;2023-12-14T09:09:10;100168.59;;;12.62;59.22
50702;BME280;36670;50.094;8.496;2023-12-14T09:11:36;100178.53;;;12.10;60.21
50702;BME280;36670;50.094;8.496;2023-12-14T09:14:02;100189.53;;;12.00;60.01
50702;BME280;36670;50.094;8.496;2023-12-14T09:16:27;100195.47;;;11.86;60.64
50702;BME280;36670;50.094;8.496;2023-12-14T09:18:52;100191.78;;;11.75;61.35
50702;BME280;36670;50.094;8.496;2023-12-14T09:21:18;100199.47;;;11.95;60.54
50702;BME280;36670;50.094;8.496;2023-12-14T09:23:43;100201.75;;;11.76;60.82
50702;BME280;36670;50.094;8.496;2023-12-14T09:26:08;100218.41;;;11.27;61.19
50702;BME280;36670;50.094;8.496;2023-12-14T09:28:33;100214.91;;;11.09;61.68
50702;BME280;36670;50.094;8.496;2023-12-14T09:30:59;100227.13;;;11.41;61.06
50702;BME280;36670;50.094;8.496;2023-12-14T09:33:24;100227.13;;;11.68;60.79
50702;BME280;36670;50.094;8.496;2023-12-14T09:35:49;100239.13;;;11.79;60.69
50702;BME280;36670;50.094;8.496;2023-12-14T09:38:15;100238.44;;;11.67;61.20
50702;BME280;36670;50.094;8.496;2023-12-14T09:40:43;100248.50;;;11.78;60.51
50702;BME280;36670;50.094;8.496;2023-12-14T09:43:09;100251.41;;;11.61;60.52
50702;BME280;36670;50.094;8.496;2023-12-14T09:45:35;100268.88;;;11.94;60.18
50702;BME280;36670;50.094;8.496;2023-12-14T09:48:01;100264.31;;;11.83;59.84
50702;BME280;36670;50.094;8.496;2023-12-14T09:50:28;100261.63;;;11.38;60.39
50702;BME280;36670;50.094;8.496;2023-12-14T09:52:53;100272.56;;;11.50;60.75
50702;BME280;36670;50.094;8.496;2023-12-14T09:55:19;100287.00;;;11.57;60.90
50702;BME280;36670;50.094;8.496;2023-12-14T09:57:44;100285.59;;;11.55;60.30
50702;BME280;36670;50.094;8.496;2023-12-14T10:00:10;100286.78;;;11.37;61.17
50702;BME280;36670;50.094;8.496;2023-12-14T10:02:36;100291.75;;;11.35;60.77
50702;BME280;36670;50.094;8.496;2023-12-14T10:05:01;100293.06;;;11.54;61.10
50702;BME280;36670;50.094;8.496;2023-12-14T10:07:26;100297.28;;;11.35;60.71
50702;BME280;36670;50.094;8.496;2023-12-14T10:09:52;100302.13;;;11.72;60.42
50702;BME280;36670;50.094;8.496;2023-12-14T10:12:18;100313.28;;;11.82;60.62
50702;BME280;36670;50.094;8.496;2023-12-14T10:14:44;100314.59;;;11.52;60.42
50702;BME280;36670;50.094;8.496;2023-12-14T10:17:21;100315.13;;;11.27;61.71
50702;BME280;36670;50.094;8.496;2023-12-14T10:19:47;100323.88;;;11.19;61.87
50702;BME280;36670;50.094;8.496;2023-12-14T10:22:16;100316.16;;;11.21;61.63
50702;BME280;36670;50.094;8.496;2023-12-14T10:24:51;100318.75;;;11.27;62.17
50702;BME280;36670;50.094;8.496;2023-12-14T10:27:17;100315.44;;;11.53;60.44
50702;BME280;36670;50.094;8.496;2023-12-14T10:29:42;100313.34;;;11.38;60.52
50702;BME280;36670;50.094;8.496;2023-12-14T10:32:10;100307.66;;;11.72;60.53
50702;BME280;36670;50.094;8.496;2023-12-14T10:34:36;100317.75;;;11.88;59.77
50702;BME280;36670;50.094;8.496;2023-12-14T10:37:05;100316.03;;;12.37;59.05
50702;BME280;36670;50.094;8.496;2023-12-14T10:39:32;100323.34;;;11.93;59.80
50702;BME280;36670;50.094;8.496;2023-12-14T10:41:58;100334.09;;;11.63;60.57
50702;BME280;36670;50.094;8.496;2023-12-14T10:44:27;100341.31;;;11.41;61.24
50702;BME280;36670;50.094;8.496;2023-12-14T10:46:57;100336.16;;;11.50;60.64
50702;BME280;36670;50.094;8.496;2023-12-14T10:49:24;100336.28;;;11.38;60.62
50702;BME280;36670;50.094;8.496;2023-12-14T10:51:52;100345.34;;;11.56;60.98
50702;BME280;36670;50.094;8.496;2023-12-14T10:54:18;100331.66;;;11.44;61.59
50702;BME280;36670;50.094;8.496;2023-12-14T10:56:44;100349.34;;;11.65;59.79
50702;BME280;36670;50.094;8.496;2023-12-14T10:59:09;100342.34;;;11.85;60.41
50702;BME280;36670;50.094;8.496;2023-12-14T11:01:35;100350.84;;;11.78;60.26
50702;BME280;36670;50.094;8.496;2023-12-14T11:04:06;100354.06;;;11.92;59.89
50702;BME280;36670;50.094;8.496;2023-12-14T11:06:35;100359.25;;;12.10;59.75
50702;BME280;36670;50.094;8.496;2023-12-14T11:09:07;100363.41;;;11.64;59.92
50702;BME280;36670;50.094;8.496;2023-12-14T11:14:11;100366.41;;;11.84;60.78
50702;BME280;36670;50.094;8.496;2023-12-14T11:16:38;100366.53;;;12.22;60.13
50702;BME280;36670;50.094;8.496;2023-12-14T11:24:33;100380.84;;;11.64;59.20
50702;BME280;36670;50.094;8.496;2023-12-14T11:27:04;100377.91;;;11.76;59.74
50702;BME280;36670;50.094;8.496;2023-12-14T11:29:29;100388.50;;;12.01;59.27
50702;BME280;36670;50.094;8.496;2023-12-14T11:31:55;100385.78;;;11.62;59.78
50702;BME280;36670;50.094;8.496;2023-12-14T11:34:24;100385.53;;;11.64;59.66
50702;BME280;36670;50.094;8.496;2023-12-14T11:36:49;100389.47;;;11.46;60.25
50702;BME280;36670;50.094;8.496;2023-12-14T11:39:14;100405.66;;;12.03;59.54
50702;BME280;36670;50.094;8.496;2023-12-14T11:41:40;100399.13;;;12.15;58.69
50702;BME280;36670;50.094;8.496;2023-12-14T11:44:05;100417.91;;;12.67;57.91
50702;BME280;36670;50.094;8.496;2023-12-14T11:46:30;100407.34;;;12.04;59.23
50702;BME280;36670;50.094;8.496;2023-12-14T11:48:57;100409.91;;;11.89;59.50
50702;BME280;36670;50.094;8.496;2023-12-14T11:51:23;100414.53;;;12.33;58.25
50702;BME280;36670;50.094;8.496;2023-12-14T11:53:50;100411.97;;;12.26;57.74
50702;BME280;36670;50.094;8.496;2023-12-14T11:56:20;100412.94;;;12.09;57.99
50702;BME280;36670;50.094;8.496;2023-12-14T11:58:48;100421.94;;;11.77;58.35
50702;BME280;36670;50.094;8.496;2023-12-14T12:01:17;100421.97;;;12.00;57.43
50702;BME280;36670;50.094;8.496;2023-12-14T12:03:43;100414.50;;;12.00;57.27
50702;BME280;36670;50.094;8.496;2023-12-14T12:06:19;100420.13;;;12.10;58.04
50702;BME280;36670;50.094;8.496;2023-12-14T12:08:44;100419.88;;;12.39;56.85
50702;BME280;36670;50.094;8.496;2023-12-14T12:11:10;100422.06;;;11.66;58.45
50702;BME280;36670;50.094;8.496;2023-12-14T12:13:35;100423.38;;;11.58;58.87
50702;BME280;36670;50.094;8.496;2023-12-14T12:16:00;100421.53;;;11.91;57.69
50702;BME280;36670;50.094;8.496;2023-12-14T12:18:25;100422.94;;;11.49;58.17
50702;BME280;36670;50.094;8.496;2023-12-14T12:20:51;100435.78;;;11.16;59.81
50702;BME280;36670;50.094;8.496;2023-12-14T12:23:18;100436.94;;;11.42;59.85
50702;BME280;36670;50.094;8.496;2023-12-14T12:25:43;100437.50;;;11.61;58.68
50702;BME280;36670;50.094;8.496;2023-12-14T12:28:09;100428.31;;;11.78;58.62
50702;BME280;36670;50.094;8.496;2023-12-14T12:30:34;100429.41;;;11.99;57.66
50702;BME280;36670;50.094;8.496;2023-12-14T12:32:59;100437.16;;;11.97;58.59
50702;BME280;36670;50.094;8.496;2023-12-14T12:35:24;100430.25;;;11.77;59.14
50702;BME280;36670;50.094;8.496;2023-12-14T12:37:50;100426.50;;;12.11;58.03
50702;BME280;36670;50.094;8.496;2023-12-14T12:40:19;100441.28;;;12.22;58.08
50702;BME280;36670;50.094;8.496;2023-12-14T12:42:45;100439.31;;;12.17;57.21
50702;BME280;36670;50.094;8.496;2023-12-14T12:45:13;100427.03;;;12.35;57.05
50702;BME280;36670;50.094;8.496;2023-12-14T12:47:38;100441.09;;;12.56;56.37
50702;BME280;36670;50.094;8.496;2023-12-14T12:50:04;100446.72;;;12.66;57.61
50702;BME280;36670;50.094;8.496;2023-12-14T12:52:30;100445.66;;;13.05;56.49
50702;BME280;36670;50.094;8.496;2023-12-14T12:54:55;100450.84;;;12.96;56.18
50702;BME280;36670;50.094;8.496;2023-12-14T12:57:21;100453.91;;;12.94;55.92